createdAt,value
2023-03-29T00:02:14.907Z,99.90
2023-03-29T00:04:41.899Z,99.90
2023-03-29T00:07:09.322Z,99.90
2023-03-29T00:09:36.488Z,99.90
2023-03-29T00:12:03.686Z,99.90
2023-03-29T00:14:31.119Z,99.90
2023-03-29T00:16:58.983Z,99.90
2023-03-29T00:19:26.354Z,99.90
2023-03-29T00:21:53.220Z,99.90
2023-03-29T00:24:21.333Z,99.90
2023-03-29T00:26:48.551Z,99.90
2023-03-29T00:29:15.551Z,99.90
2023-03-29T00:31:44.455Z,99.90
2023-03-29T00:34:11.809Z,99.90
2023-03-29T00:36:40.598Z,99.90
2023-03-29T00:39:07.595Z,99.90
2023-03-29T00:41:34.682Z,99.90
2023-03-29T00:44:04.094Z,99.90
2023-03-29T00:46:31.901Z,99.90
2023-03-29T00:49:08.847Z,99.90
2023-03-29T00:51:38.113Z,99.90
2023-03-29T00:54:08.297Z,99.90
2023-03-29T00:56:39.886Z,99.90
2023-03-29T00:59:21.645Z,99.90
2023-03-29T01:01:58.824Z,99.90
2023-03-29T01:04:45.496Z,99.90
2023-03-29T01:07:24.519Z,99.90
2023-03-29T01:09:57.541Z,99.90
2023-03-29T01:12:31.118Z,99.90
2023-03-29T01:15:11.561Z,99.90
2023-03-29T01:17:40.467Z,99.90
2023-03-29T01:20:19.107Z,99.90
2023-03-29T01:23:04.441Z,99.90
2023-03-29T01:25:40.468Z,99.90
2023-03-29T01:28:22.240Z,99.90
2023-03-29T01:30:55.456Z,99.90
2023-03-29T01:33:27.876Z,99.90
2023-03-29T01:36:24.924Z,99.90
2023-03-29T01:39:07.111Z,99.90
2023-03-29T01:42:01.579Z,99.90
2023-03-29T01:44:56.447Z,99.90
2023-03-29T01:47:38.340Z,99.90
2023-03-29T01:50:12.854Z,99.90
2023-03-29T01:52:48.565Z,99.90
2023-03-29T01:55:21.689Z,99.90
2023-03-29T01:57:50.408Z,99.90
2023-03-29T02:00:22.509Z,99.90
2023-03-29T02:02:53.501Z,99.90
2023-03-29T02:05:23.532Z,99.90
2023-03-29T02:07:51.439Z,99.90
2023-03-29T02:10:20.144Z,99.90
2023-03-29T02:12:47.288Z,99.90
2023-03-29T02:15:18.832Z,99.90
2023-03-29T02:17:46.876Z,99.90
2023-03-29T02:20:22.707Z,99.90
2023-03-29T02:22:57.212Z,99.90
2023-03-29T02:25:24.608Z,99.90
2023-03-29T02:27:52.828Z,99.90
2023-03-29T02:30:21.067Z,99.90
2023-03-29T02:33:14.412Z,99.90
2023-03-29T02:35:54.804Z,99.90
2023-03-29T02:38:26.453Z,99.90
2023-03-29T02:40:55.542Z,99.90
2023-03-29T02:43:25.994Z,99.90
2023-03-29T02:45:53.723Z,99.90
2023-03-29T02:48:23.512Z,99.90
2023-03-29T02:50:54.212Z,99.90
2023-03-29T02:53:27.688Z,99.90
2023-03-29T02:55:55.538Z,99.90
2023-03-29T02:58:26.533Z,99.90
2023-03-29T03:00:53.710Z,99.90
2023-03-29T03:03:20.862Z,99.90
2023-03-29T03:05:49.006Z,99.90
2023-03-29T03:08:16.147Z,99.90
2023-03-29T03:10:43.141Z,99.90
2023-03-29T03:13:09.977Z,99.90
2023-03-29T03:15:37.404Z,99.90
2023-03-29T03:18:04.760Z,99.90
2023-03-29T03:20:31.727Z,99.90
2023-03-29T03:22:58.671Z,99.90
2023-03-29T03:25:25.617Z,99.90
2023-03-29T03:27:53.171Z,99.90
2023-03-29T03:30:20.935Z,99.90
2023-03-29T03:32:47.976Z,99.90
2023-03-29T03:35:15.407Z,99.90
2023-03-29T03:37:42.266Z,99.90
2023-03-29T03:40:09.504Z,99.90
2023-03-29T03:42:36.997Z,99.90
2023-03-29T03:45:04.091Z,99.90
2023-03-29T03:47:31.157Z,99.90
2023-03-29T03:49:58.335Z,99.90
2023-03-29T03:52:25.330Z,99.90
2023-03-29T03:54:52.058Z,99.90
2023-03-29T03:57:19.036Z,99.90
2023-03-29T03:59:47.629Z,99.90
2023-03-29T04:02:15.690Z,99.90
2023-03-29T04:04:43.520Z,99.90
2023-03-29T04:07:13.113Z,99.90
2023-03-29T04:09:40.068Z,99.90
2023-03-29T04:12:06.975Z,99.90
2023-03-29T04:14:34.056Z,99.90
2023-03-29T04:17:02.068Z,99.90
2023-03-29T04:19:28.893Z,99.90
2023-03-29T04:21:56.017Z,99.90
2023-03-29T04:24:23.356Z,99.90
2023-03-29T04:26:51.291Z,99.90
2023-03-29T04:29:18.084Z,99.90
2023-03-29T04:31:44.918Z,99.90
2023-03-29T04:34:12.073Z,99.90
2023-03-29T04:36:38.994Z,99.90
2023-03-29T04:39:07.938Z,99.90
2023-03-29T04:41:34.932Z,99.90
2023-03-29T04:44:02.679Z,99.90
2023-03-29T04:46:30.063Z,99.90
2023-03-29T04:48:57.843Z,99.90
2023-03-29T04:51:24.909Z,99.90
2023-03-29T04:53:51.846Z,99.90
2023-03-29T04:56:18.967Z,99.90
2023-03-29T04:58:46.102Z,99.90
2023-03-29T05:01:13.029Z,99.90
2023-03-29T05:03:40.232Z,99.90
2023-03-29T05:06:09.671Z,99.90
2023-03-29T05:08:39.302Z,99.90
2023-03-29T05:11:07.854Z,99.90
2023-03-29T05:13:35.395Z,99.90
2023-03-29T05:16:03.710Z,99.90
2023-03-29T05:18:31.082Z,99.90
2023-03-29T05:20:59.661Z,99.90
2023-03-29T05:23:27.432Z,99.90
2023-03-29T05:25:54.552Z,99.90
2023-03-29T05:28:21.689Z,99.90
2023-03-29T05:31:00.102Z,99.90
2023-03-29T05:33:27.644Z,99.90
2023-03-29T05:36:07.766Z,99.90
2023-03-29T05:38:35.791Z,99.90
2023-03-29T05:41:03.140Z,99.90
2023-03-29T05:43:30.182Z,99.90
2023-03-29T05:45:57.537Z,99.90
2023-03-29T05:48:25.778Z,99.90
2023-03-29T05:50:54.537Z,99.90
2023-03-29T05:53:23.150Z,99.90
2023-03-29T05:55:51.311Z,99.90
2023-03-29T05:58:19.095Z,99.90
2023-03-29T06:00:46.393Z,99.90
2023-03-29T06:03:21.146Z,99.90
2023-03-29T06:05:55.018Z,99.90
2023-03-29T06:08:22.799Z,99.90
2023-03-29T06:10:49.833Z,99.90
2023-03-29T06:13:17.412Z,99.90
2023-03-29T06:15:45.144Z,99.90
2023-03-29T06:18:12.492Z,99.90
2023-03-29T06:20:39.443Z,99.90
2023-03-29T06:23:06.307Z,99.90
2023-03-29T06:25:34.179Z,99.90
2023-03-29T06:28:01.341Z,99.90
2023-03-29T06:30:28.781Z,99.90
2023-03-29T06:32:57.844Z,99.90
2023-03-29T06:35:25.250Z,99.90
2023-03-29T06:37:53.626Z,99.90
2023-03-29T06:40:24.722Z,99.90
2023-03-29T06:42:57.770Z,99.90
2023-03-29T06:45:27.477Z,99.90
2023-03-29T06:47:57.171Z,99.90
2023-03-29T06:50:25.536Z,99.90
2023-03-29T06:52:52.637Z,99.90
2023-03-29T06:55:20.685Z,99.90
2023-03-29T06:57:48.061Z,99.90
2023-03-29T07:00:18.305Z,99.90
2023-03-29T07:02:46.578Z,99.90
2023-03-29T07:05:14.676Z,99.90
2023-03-29T07:08:02.841Z,99.90
2023-03-29T07:10:32.855Z,99.90
2023-03-29T07:13:01.111Z,99.90
2023-03-29T07:15:28.807Z,99.90
2023-03-29T07:17:55.957Z,99.90
2023-03-29T07:20:24.946Z,99.90
2023-03-29T07:22:51.960Z,99.90
2023-03-29T07:25:20.333Z,99.90
2023-03-29T07:27:47.292Z,99.90
2023-03-29T07:30:19.658Z,99.90
2023-03-29T07:32:47.081Z,99.90
2023-03-29T07:35:15.212Z,99.90
2023-03-29T07:37:42.928Z,99.90
2023-03-29T07:40:16.046Z,99.90
2023-03-29T07:42:44.562Z,99.90
2023-03-29T07:45:13.851Z,99.90
2023-03-29T07:47:41.625Z,99.90
2023-03-29T07:50:09.769Z,99.90
2023-03-29T07:52:38.435Z,99.90
2023-03-29T07:55:10.529Z,99.90
2023-03-29T07:57:37.648Z,99.90
2023-03-29T08:00:16.275Z,99.90
2023-03-29T08:02:52.522Z,99.90
2023-03-29T08:05:37.879Z,99.90
2023-03-29T08:08:09.548Z,99.90
2023-03-29T08:10:39.546Z,99.90
2023-03-29T08:13:08.472Z,99.90
2023-03-29T08:15:38.526Z,99.90
2023-03-29T08:18:06.863Z,99.90
2023-03-29T08:20:34.047Z,99.90
2023-03-29T08:23:00.962Z,99.90
2023-03-29T08:25:27.781Z,99.90
2023-03-29T08:27:54.671Z,99.90
2023-03-29T08:30:21.880Z,99.90
2023-03-29T08:32:52.200Z,99.90
2023-03-29T08:35:20.782Z,99.90
2023-03-29T08:37:47.745Z,99.90
2023-03-29T08:40:23.179Z,99.90
2023-03-29T08:43:12.530Z,99.90
2023-03-29T08:45:50.927Z,99.90
2023-03-29T08:48:23.934Z,99.90
2023-03-29T08:50:53.928Z,99.90
2023-03-29T08:53:29.145Z,99.90
2023-03-29T08:55:59.642Z,99.90
2023-03-29T08:58:31.545Z,99.90
2023-03-29T09:01:00.851Z,99.90
2023-03-29T09:03:37.534Z,99.90
2023-03-29T09:06:07.663Z,99.90
2023-03-29T09:08:39.402Z,99.90
2023-03-29T09:11:23.710Z,99.90
2023-03-29T09:14:15.693Z,99.90
2023-03-29T09:16:58.058Z,99.90
2023-03-29T09:19:31.435Z,99.90
2023-03-29T09:22:01.362Z,99.90
2023-03-29T09:24:28.288Z,99.90
2023-03-29T09:27:05.879Z,99.90
2023-03-29T09:30:10.124Z,99.90
2023-03-29T09:32:51.748Z,99.90
2023-03-29T09:35:31.071Z,99.90
2023-03-29T09:37:58.250Z,99.90
2023-03-29T09:40:31.636Z,99.90
2023-03-29T09:43:01.017Z,99.90
2023-03-29T09:45:27.971Z,99.90
2023-03-29T09:48:00.288Z,99.90
2023-03-29T09:50:37.878Z,99.90
2023-03-29T09:53:05.486Z,99.90
2023-03-29T09:55:34.022Z,99.90
2023-03-29T09:58:06.025Z,99.90
2023-03-29T10:00:32.961Z,99.90
2023-03-29T10:03:00.459Z,99.90
2023-03-29T10:05:32.636Z,99.90
2023-03-29T10:08:01.311Z,99.90
2023-03-29T10:10:34.532Z,99.90
2023-03-29T10:13:05.544Z,99.90
2023-03-29T10:15:33.000Z,99.90
2023-03-29T10:18:05.899Z,99.90
2023-03-29T10:20:36.474Z,99.90
2023-03-29T10:23:06.625Z,99.90
2023-03-29T10:25:38.376Z,99.90
2023-03-29T10:28:11.424Z,99.90
2023-03-29T10:30:39.868Z,99.90
2023-03-29T10:33:15.248Z,99.90
2023-03-29T10:35:42.845Z,99.90
2023-03-29T10:38:15.015Z,99.90
2023-03-29T10:40:48.103Z,99.90
2023-03-29T10:43:32.336Z,99.90
2023-03-29T10:46:08.882Z,99.90
2023-03-29T10:48:36.598Z,99.90
2023-03-29T10:51:06.042Z,99.90
2023-03-29T10:53:35.818Z,99.90
2023-03-29T10:56:17.949Z,99.90
2023-03-29T10:58:53.993Z,99.90
2023-03-29T11:01:39.528Z,99.90
2023-03-29T11:04:57.449Z,99.90
2023-03-29T11:07:35.214Z,99.90
2023-03-29T11:10:04.800Z,99.90
2023-03-29T11:12:43.004Z,99.90
2023-03-29T11:15:37.509Z,99.90
2023-03-29T11:18:47.353Z,99.90
2023-03-29T11:21:23.432Z,99.90
2023-03-29T11:23:55.417Z,99.90
2023-03-29T11:26:33.954Z,99.90
2023-03-29T11:29:33.482Z,99.90
2023-03-29T11:32:00.534Z,99.90
2023-03-29T11:34:48.171Z,99.90
2023-03-29T11:37:33.608Z,99.90
2023-03-29T11:40:13.687Z,99.90
2023-03-29T11:42:45.983Z,99.50
2023-03-29T11:45:17.443Z,99.90
2023-03-29T11:47:46.906Z,99.90
2023-03-29T11:50:22.010Z,99.90
2023-03-29T11:52:54.407Z,99.40
2023-03-29T11:55:31.914Z,98.90
2023-03-29T11:58:06.120Z,95.70
2023-03-29T12:00:40.472Z,96.30
2023-03-29T12:03:22.007Z,96.00
2023-03-29T12:05:55.706Z,94.90
2023-03-29T12:08:31.203Z,92.90
2023-03-29T12:11:40.059Z,91.30
2023-03-29T12:14:20.866Z,84.70
2023-03-29T12:16:55.297Z,83.00
2023-03-29T12:19:26.412Z,81.60
2023-03-29T12:21:57.150Z,79.30
2023-03-29T12:24:29.230Z,74.60
2023-03-29T12:27:20.376Z,75.30
2023-03-29T12:30:02.886Z,74.10
2023-03-29T12:32:59.599Z,74.40
2023-03-29T12:36:12.846Z,75.30
2023-03-29T12:38:42.712Z,71.10
2023-03-29T12:41:23.657Z,70.70
2023-03-29T12:43:51.078Z,70.50
2023-03-29T12:46:26.605Z,68.10
2023-03-29T12:48:57.354Z,66.40
2023-03-29T12:51:32.294Z,65.90
2023-03-29T12:54:08.219Z,64.00
2023-03-29T12:56:41.517Z,66.60
2023-03-29T12:59:11.631Z,66.00
2023-03-29T13:01:41.533Z,64.40
2023-03-29T13:04:21.185Z,64.50
2023-03-29T13:07:02.776Z,64.10
2023-03-29T13:09:36.741Z,62.50
2023-03-29T13:12:08.965Z,62.70
2023-03-29T13:14:42.694Z,59.80
2023-03-29T13:17:48.216Z,60.20
2023-03-29T13:20:36.674Z,59.10
2023-03-29T13:23:19.228Z,58.20
2023-03-29T13:26:11.417Z,59.20
2023-03-29T13:29:10.881Z,59.60
2023-03-29T13:31:49.139Z,59.70
2023-03-29T13:34:43.104Z,58.10
2023-03-29T13:37:45.977Z,58.40
2023-03-29T13:40:25.362Z,58.30
2023-03-29T13:43:10.134Z,58.30
2023-03-29T13:45:38.686Z,57.70
2023-03-29T13:48:30.010Z,58.40
2023-03-29T13:51:02.038Z,58.30
2023-03-29T13:53:35.172Z,56.90
2023-03-29T13:56:03.235Z,55.80
2023-03-29T13:58:51.349Z,56.90
2023-03-29T14:01:39.693Z,56.80
2023-03-29T14:04:12.429Z,56.90
2023-03-29T14:06:42.582Z,56.90
2023-03-29T14:09:14.554Z,57.40
2023-03-29T14:11:44.965Z,57.20
2023-03-29T14:14:12.189Z,55.80
2023-03-29T14:16:40.726Z,55.40
2023-03-29T14:19:29.693Z,56.70
2023-03-29T14:21:59.031Z,56.30
2023-03-29T14:24:28.632Z,56.30
2023-03-29T14:26:55.521Z,56.60
2023-03-29T14:29:24.328Z,56.00
2023-03-29T14:31:53.534Z,55.70
2023-03-29T14:34:20.632Z,55.50
2023-03-29T14:36:49.375Z,55.40
2023-03-29T14:39:22.127Z,55.10
2023-03-29T14:41:52.825Z,54.60
2023-03-29T14:44:22.467Z,54.00
2023-03-29T14:46:49.398Z,53.80
2023-03-29T14:49:18.875Z,54.80
2023-03-29T14:51:47.144Z,53.80
2023-03-29T14:54:23.260Z,53.80
2023-03-29T14:56:50.863Z,54.00
2023-03-29T14:59:37.128Z,54.10
2023-03-29T15:02:21.787Z,54.00
2023-03-29T15:04:59.197Z,54.30
2023-03-29T15:07:28.326Z,54.80
2023-03-29T15:09:58.878Z,55.10
2023-03-29T15:12:29.570Z,55.30
2023-03-29T15:14:56.918Z,55.30
2023-03-29T15:17:51.185Z,56.10
2023-03-29T15:20:24.490Z,56.10
2023-03-29T15:22:58.826Z,56.30
2023-03-29T15:25:34.150Z,56.00
2023-03-29T15:28:01.856Z,56.50
2023-03-29T15:30:34.669Z,56.20
2023-03-29T15:33:23.336Z,56.20
2023-03-29T15:35:53.656Z,56.10
2023-03-29T15:38:25.396Z,56.80
2023-03-29T15:40:57.349Z,57.30
2023-03-29T15:43:24.773Z,57.30
2023-03-29T15:45:51.794Z,57.00
2023-03-29T15:48:21.679Z,57.30
2023-03-29T15:50:49.142Z,57.10
2023-03-29T15:53:20.949Z,57.20
2023-03-29T15:55:50.075Z,57.70
2023-03-29T15:58:19.351Z,58.10
2023-03-29T16:00:53.824Z,58.70
2023-03-29T16:03:22.312Z,59.40
2023-03-29T16:05:49.177Z,60.50
2023-03-29T16:08:16.122Z,61.40
2023-03-29T16:10:43.993Z,62.10
2023-03-29T16:13:14.429Z,63.10
2023-03-29T16:15:42.637Z,64.00
2023-03-29T16:18:09.966Z,65.00
2023-03-29T16:20:38.208Z,65.90
2023-03-29T16:23:09.710Z,66.40
2023-03-29T16:25:38.493Z,66.70
2023-03-29T16:28:06.354Z,67.50
2023-03-29T16:30:34.306Z,67.80
2023-03-29T16:33:06.141Z,68.40
2023-03-29T16:35:36.355Z,68.90
2023-03-29T16:38:03.875Z,69.30
2023-03-29T16:40:30.809Z,70.00
2023-03-29T16:42:57.526Z,70.70
2023-03-29T16:45:24.676Z,71.20
2023-03-29T16:47:51.748Z,71.60
2023-03-29T16:50:20.072Z,72.00
2023-03-29T16:52:48.492Z,72.40
2023-03-29T16:55:18.923Z,72.90
2023-03-29T16:57:47.154Z,73.20
2023-03-29T17:00:17.018Z,73.50
2023-03-29T17:02:44.036Z,73.90
2023-03-29T17:05:12.512Z,74.30
2023-03-29T17:07:39.970Z,74.80
2023-03-29T17:10:11.662Z,74.90
2023-03-29T17:12:39.915Z,75.40
2023-03-29T17:15:08.171Z,75.70
2023-03-29T17:17:36.260Z,76.20
2023-03-29T17:20:06.128Z,76.60
2023-03-29T17:22:32.977Z,77.10
2023-03-29T17:24:59.698Z,77.30
2023-03-29T17:27:26.437Z,78.10
2023-03-29T17:29:53.172Z,78.20
2023-03-29T17:32:19.876Z,78.30
2023-03-29T17:34:47.949Z,79.20
2023-03-29T17:37:15.057Z,79.40
2023-03-29T17:39:42.162Z,79.40
2023-03-29T17:42:09.178Z,79.70
2023-03-29T17:44:36.184Z,80.00
2023-03-29T17:47:03.055Z,80.10
2023-03-29T17:49:30.135Z,80.50
2023-03-29T17:51:57.066Z,80.70
2023-03-29T17:54:24.098Z,81.20
2023-03-29T17:56:51.047Z,81.60
2023-03-29T17:59:18.338Z,81.90
2023-03-29T18:01:45.212Z,82.20
2023-03-29T18:04:12.591Z,82.60
2023-03-29T18:06:39.467Z,83.10
2023-03-29T18:09:06.355Z,83.40
2023-03-29T18:11:33.215Z,83.50
2023-03-29T18:14:01.044Z,84.00
2023-03-29T18:16:28.217Z,84.20
2023-03-29T18:18:54.988Z,84.40
2023-03-29T18:21:22.074Z,84.80
2023-03-29T18:23:49.903Z,85.00
2023-03-29T18:26:17.138Z,85.30
2023-03-29T18:28:47.196Z,85.80
2023-03-29T18:31:14.804Z,86.10
2023-03-29T18:33:41.799Z,86.60
2023-03-29T18:36:12.679Z,86.90
2023-03-29T18:38:43.156Z,87.20
2023-03-29T18:41:12.424Z,87.30
2023-03-29T18:43:40.567Z,87.20
2023-03-29T18:46:08.355Z,87.20
2023-03-29T18:48:38.941Z,87.80
2023-03-29T18:51:07.525Z,88.00
2023-03-29T18:53:38.716Z,88.30
2023-03-29T18:56:06.574Z,88.30
2023-03-29T18:58:33.506Z,88.40
2023-03-29T19:01:05.194Z,88.60
2023-03-29T19:03:35.084Z,89.00
2023-03-29T19:06:02.895Z,89.20
2023-03-29T19:08:30.035Z,89.40
2023-03-29T19:11:05.700Z,89.60
2023-03-29T19:13:32.505Z,89.80
2023-03-29T19:15:59.281Z,90.00
2023-03-29T19:18:26.454Z,90.00
2023-03-29T19:20:54.332Z,90.00
2023-03-29T19:23:22.486Z,90.10
2023-03-29T19:25:53.978Z,90.10
2023-03-29T19:28:20.725Z,90.10
2023-03-29T19:30:47.608Z,90.20
2023-03-29T19:33:14.640Z,90.30
2023-03-29T19:35:41.801Z,90.30
2023-03-29T19:38:08.692Z,90.40
2023-03-29T19:40:36.476Z,90.40
2023-03-29T19:43:03.741Z,90.50
2023-03-29T19:45:30.556Z,90.60
2023-03-29T19:50:26.562Z,90.80
2023-03-29T19:52:58.481Z,90.80
2023-03-29T19:55:26.472Z,90.90
2023-03-29T19:57:53.223Z,90.90
2023-03-29T20:00:24.437Z,91.00
2023-03-29T20:02:56.623Z,91.00
2023-03-29T20:05:24.185Z,91.10
2023-03-29T20:07:51.320Z,91.20
2023-03-29T20:10:18.232Z,91.20
2023-03-29T20:12:44.979Z,91.20
2023-03-29T20:15:11.789Z,91.30
2023-03-29T20:17:40.924Z,91.50
2023-03-29T20:20:12.043Z,91.50
2023-03-29T20:22:42.082Z,91.50
2023-03-29T20:25:09.503Z,91.60
2023-03-29T20:27:36.526Z,91.60
2023-03-29T20:30:03.860Z,91.60
2023-03-29T20:32:30.886Z,91.60
2023-03-29T20:34:57.727Z,91.60
2023-03-29T20:37:25.929Z,92.10
2023-03-29T20:39:53.306Z,91.80
2023-03-29T20:42:24.631Z,91.80
2023-03-29T20:44:51.456Z,91.90
2023-03-29T20:47:19.288Z,92.00
2023-03-29T20:49:46.170Z,92.20
2023-03-29T20:52:18.123Z,92.30
2023-03-29T20:54:45.747Z,92.50
2023-03-29T20:57:15.884Z,92.70
2023-03-29T20:59:44.208Z,92.80
2023-03-29T21:02:16.621Z,92.80
2023-03-29T21:04:44.086Z,93.10
2023-03-29T21:07:11.178Z,93.30
2023-03-29T21:09:38.021Z,93.40
2023-03-29T21:12:04.847Z,93.60
2023-03-29T21:14:33.370Z,93.70
2023-03-29T21:17:00.258Z,93.90
2023-03-29T21:19:27.357Z,94.00
2023-03-29T21:21:54.968Z,94.20
2023-03-29T21:24:22.323Z,94.40
2023-03-29T21:26:49.180Z,94.50
2023-03-29T21:29:15.920Z,94.70
2023-03-29T21:31:42.893Z,94.80
2023-03-29T21:34:09.763Z,95.00
2023-03-29T21:36:36.591Z,95.20
2023-03-29T21:39:03.839Z,95.30
2023-03-29T21:41:30.552Z,95.50
2023-03-29T21:43:57.267Z,95.60
2023-03-29T21:46:24.807Z,95.80
2023-03-29T21:48:51.709Z,95.90
2023-03-29T21:51:18.444Z,96.00
2023-03-29T21:53:45.173Z,96.10
2023-03-29T21:56:12.262Z,96.30
2023-03-29T21:58:39.062Z,96.40
2023-03-29T22:01:07.410Z,96.40
2023-03-29T22:03:34.266Z,96.60
2023-03-29T22:06:03.259Z,96.70
2023-03-29T22:08:31.352Z,96.70
2023-03-29T22:10:58.159Z,96.90
2023-03-29T22:13:26.978Z,97.00
2023-03-29T22:16:01.372Z,97.10
2023-03-29T22:18:42.584Z,97.10
2023-03-29T22:21:15.260Z,97.10
2023-03-29T22:23:44.178Z,97.30
2023-03-29T22:26:12.775Z,97.50
2023-03-29T22:28:40.103Z,97.60
2023-03-29T22:31:09.707Z,97.80
2023-03-29T22:33:37.636Z,97.90
2023-03-29T22:36:12.302Z,98.00
2023-03-29T22:38:39.087Z,98.10
2023-03-29T22:41:06.511Z,98.20
2023-03-29T22:43:33.305Z,98.30
2023-03-29T22:46:00.150Z,98.40
2023-03-29T22:48:26.947Z,98.50
2023-03-29T22:50:53.633Z,98.60
2023-03-29T22:53:20.737Z,98.70
2023-03-29T22:55:47.489Z,98.80
2023-03-29T22:58:14.350Z,98.90
2023-03-29T23:00:41.113Z,99.00
2023-03-29T23:03:07.974Z,99.10
2023-03-29T23:05:34.731Z,99.30
2023-03-29T23:08:01.471Z,99.40
2023-03-29T23:10:31.174Z,99.50
2023-03-29T23:13:08.615Z,99.70
2023-03-29T23:15:37.443Z,99.90
2023-03-29T23:18:05.483Z,99.90
2023-03-29T23:20:32.804Z,99.90
2023-03-29T23:22:59.836Z,99.90
2023-03-29T23:25:27.061Z,99.90
2023-03-29T23:27:54.155Z,99.90
2023-03-29T23:30:21.683Z,99.90
2023-03-29T23:32:49.578Z,99.90
2023-03-29T23:35:16.956Z,99.90
2023-03-29T23:37:43.794Z,99.90
2023-03-29T23:40:13.806Z,99.90
2023-03-29T23:42:42.219Z,99.90
2023-03-29T23:45:12.779Z,99.90
2023-03-29T23:47:41.291Z,99.90
2023-03-29T23:50:10.053Z,99.90
2023-03-29T23:52:37.846Z,99.90
2023-03-29T23:55:04.979Z,99.90
2023-03-29T23:57:34.945Z,99.90
